Main page
METAR-TAF:

METAR-TAF

Airports :

Termez Airport

Termez, Uzbekistan

latitude: 37-14N, longitude: 067-16E, elevation: 302 m

Current weather observation

The report was made 30 minutes ago, at 13:30 UTC
Wind 4 kt from the South
Temperature 27°C
Humidity 20%
Pressure 1014 hPa
Visibility 10 km or more
no clouds below 1500 m and no cumulonimbus

METAR: UTST 211330Z 18004KT CAVOK 27/02 Q1014 R88/CLRD70 NOSIG

Time: 19:00 (14:00 UTC)

Forecast

The report was made 3 hours and 0 minutes ago, at 11:00 UTC
Forecast valid from 21 at 12 UTC to 22 at 12 UTC
Wind 10 kt from variable directions
Visibility: 6000 m
Temporary
from 21 at 12 UTC to 21 at 23 UTC
Wind 17 kt from the West with gusts up to 27 kt
Visibility: 2400 m
Scattered clouds at a height of 6600 ft, Cumulonimbus.
Scattered clouds at a height of 10000 ft

TAF: UTST 211100Z 2112/2212 VRB10KT 6000 NSC TEMPO 2112/2123 26017G27KT 2400 -DS SCT066CB SCT100

Weather observations and forecasts of more than 4000 airports (METAR and TAF reports).

The available stations are represented by yellow and red dots on the map.

Hover mouse over dot to see the name of the station.

Then click to see weather observations and forecasts.

To change the map : click on the green buttons with a black cross to zoom in, on the green button with a dash to zoom out, or on the green arrows for adjacent maps.


METAR-TAF: